Time;durP1;ratioP1;P1;durP2;ratioP2;P2;SDS_P1;SDS_P2;PMS_P1;PMS_P2;Temp;Humidity;BMP_temperature;BMP_pressure;BME280_temperature;BME280_humidity;BME280_pressure;Samples;Min_cycle;Max_cycle;Signal;HPM_P1;HPM_P2
2022/11/06 00:01:13;;;;;;;0.10;0.10;;;10.40;99.90;;;;;;5088524;28;20079;-72
2022/11/06 00:03:40;;;;;;;0.20;0.20;;;10.40;99.90;;;;;;5066622;28;20047;-73
2022/11/06 00:08:54;;;;;;;0.20;0.20;;;10.40;99.90;;;;;;5072620;28;20126;-73
2022/11/06 00:11:23;;;;;;;0.15;0.15;;;10.40;99.90;;;;;;5088327;28;20062;-73
2022/11/06 00:13:51;;;;;;;0.20;0.20;;;10.60;99.90;;;;;;5106321;28;20425;-73
2022/11/06 00:16:17;;;;;;;0.20;0.20;;;10.40;99.90;;;;;;5087256;28;20052;-73
2022/11/06 00:18:42;;;;;;;0.10;0.10;;;10.40;99.90;;;;;;5088790;28;20672;-73
2022/11/06 00:21:14;;;;;;;0.20;0.20;;;10.30;99.90;;;;;;5083570;28;20077;-73
2022/11/06 00:23:40;;;;;;;0.10;0.10;;;10.30;99.90;;;;;;5088352;28;20040;-74
2022/11/06 00:26:11;;;;;;;0.10;0.10;;;10.30;99.90;;;;;;5079735;28;20147;-73
2022/11/06 00:28:37;;;;;;;;;;;10.20;99.90;;;;;;5091581;28;20102;-73
2022/11/06 00:31:15;;;;;;;0.20;0.20;;;10.20;99.90;;;;;;5089083;28;19927;-73
2022/11/06 00:33:44;;;;;;;0.20;0.20;;;10.20;99.90;;;;;;5082762;28;20048;-73
2022/11/06 00:36:13;;;;;;;0.10;0.10;;;10.10;99.90;;;;;;5081257;28;20113;-73
2022/11/06 00:38:38;;;;;;;0.20;0.20;;;10.10;99.90;;;;;;5102090;28;20043;-73
2022/11/06 00:41:07;;;;;;;0.10;0.10;;;10.10;99.90;;;;;;5109302;28;20116;-73
2022/11/06 00:43:34;;;;;;;0.20;0.20;;;10.00;99.90;;;;;;5090009;28;20418;-72
2022/11/06 00:46:11;;;;;;;0.20;0.20;;;10.00;99.90;;;;;;5082923;28;20423;-73
2022/11/06 00:48:38;;;;;;;0.10;0.10;;;10.00;99.90;;;;;;5090954;28;20055;-72
2022/11/06 00:51:19;;;;;;;0.20;0.20;;;10.00;99.90;;;;;;5086910;28;20400;-73
2022/11/06 00:53:45;;;;;;;0.10;0.10;;;9.90;99.90;;;;;;5090812;28;20048;-73
2022/11/06 00:56:16;;;;;;;0.20;0.20;;;9.90;99.90;;;;;;5090768;28;20040;-73
2022/11/06 00:58:43;;;;;;;0.20;0.20;;;9.90;99.90;;;;;;5091506;28;20075;-73
2022/11/06 01:01:14;;;;;;;0.17;0.17;;;9.80;99.90;;;;;;5089836;28;20036;-73
2022/11/06 01:03:41;;;;;;;;;;;9.80;99.90;;;;;;5088765;28;20127;-74
2022/11/06 01:06:16;;;;;;;0.20;0.20;;;9.80;99.90;;;;;;5071875;28;20398;-73
2022/11/06 01:08:42;;;;;;;0.20;0.20;;;9.80;99.90;;;;;;5075938;28;20052;-73
2022/11/06 01:11:15;;;;;;;0.10;0.10;;;9.80;99.90;;;;;;5089066;28;20055;-72
2022/11/06 01:13:41;;;;;;;0.10;0.10;;;9.70;99.90;;;;;;5073729;28;20044;-72
2022/11/06 01:16:11;;;;;;;0.20;0.20;;;9.90;99.90;;;;;;5090196;28;20043;-72
2022/11/06 01:18:37;;;;;;;0.20;0.20;;;9.70;99.90;;;;;;5095158;28;20052;-72
2022/11/06 01:21:12;;;;;;;0.20;0.20;;;9.80;99.90;;;;;;5111279;27;20085;-73
2022/11/06 01:23:38;;;;;;;0.20;0.20;;;9.70;99.90;;;;;;5088084;28;20068;-73
2022/11/06 01:26:06;;;;;;;0.20;0.20;;;9.70;99.90;;;;;;5083899;28;20103;-73
2022/11/06 01:28:32;;;;;;;0.20;0.20;;;9.60;99.90;;;;;;5070354;28;20462;-74
2022/11/06 01:31:10;;;;;;;0.20;0.20;;;9.60;99.90;;;;;;5086002;28;20101;-73
2022/11/06 01:33:36;;;;;;;0.10;0.10;;;9.60;99.90;;;;;;5072485;28;20045;-73
2022/11/06 01:36:02;;;;;;;0.20;0.20;;;9.60;99.90;;;;;;5086468;28;20058;-72
2022/11/06 01:38:28;;;;;;;0.13;0.13;;;9.60;99.90;;;;;;5080781;28;20068;-73
2022/11/06 01:40:54;;;;;;;0.10;0.10;;;9.60;99.90;;;;;;5080245;28;20074;-73
2022/11/06 01:43:22;;;;;;;0.20;0.20;;;9.60;99.90;;;;;;5077923;28;20483;-73
2022/11/06 01:45:53;;;;;;;0.10;0.10;;;9.60;99.90;;;;;;5098896;28;20032;-72
2022/11/06 01:48:23;;;;;;;0.13;0.13;;;10.10;99.90;;;;;;5090209;28;20047;-72
2022/11/06 01:50:52;;;;;;;0.15;0.15;;;9.60;99.90;;;;;;5088115;28;20163;-73
2022/11/06 01:53:18;;;;;;;0.10;0.10;;;9.60;99.90;;;;;;5092027;28;20060;-73
2022/11/06 01:55:47;;;;;;;0.20;0.20;;;9.60;99.90;;;;;;5089941;28;20048;-72
2022/11/06 01:58:17;;;;;;;0.10;0.10;;;9.90;99.90;;;;;;5087734;28;20044;-73
2022/11/06 02:00:43;;;;;;;0.20;0.20;;;9.60;99.90;;;;;;5088629;28;20142;-73
2022/11/06 02:03:11;;;;;;;0.20;0.20;;;9.60;99.90;;;;;;5077204;28;20067;-72
2022/11/06 02:05:38;;;;;;;0.20;0.20;;;9.60;99.90;;;;;;5073686;28;20436;-72
2022/11/06 02:08:04;;;;;;;0.10;0.10;;;9.60;99.90;;;;;;5089143;28;20728;-72
2022/11/06 02:10:31;;;;;;;0.20;0.20;;;9.60;99.90;;;;;;5087727;28;20044;-72
2022/11/06 02:13:04;;;;;;;0.10;0.10;;;9.60;99.90;;;;;;5088871;28;20048;-72
2022/11/06 02:16:08;;;;;;;0.20;0.20;;;9.60;99.90;;;;;;5087721;28;20491;-72
2022/11/06 02:18:39;;;;;;;0.20;0.20;;;9.50;99.90;;;;;;5084203;28;20063;-73
2022/11/06 02:21:29;;;;;;;0.13;0.13;;;9.50;99.90;;;;;;5082586;28;20044;-73
2022/11/06 02:24:09;;;;;;;0.15;0.15;;;9.50;99.90;;;;;;5087746;28;20462;-72
2022/11/06 02:26:56;;;;;;;0.20;0.20;;;9.50;99.90;;;;;;5097400;28;20044;-72
2022/11/06 02:29:46;;;;;;;0.13;0.13;;;9.50;99.90;;;;;;5086581;28;20089;-73
2022/11/06 02:32:26;;;;;;;0.10;0.10;;;9.50;99.90;;;;;;5073410;28;20040;-73
2022/11/06 02:34:53;;;;;;;0.10;0.10;;;9.50;99.90;;;;;;5083949;28;20456;-73
2022/11/06 02:37:28;;;;;;;0.10;0.10;;;9.50;99.90;;;;;;5089175;28;20049;-73
2022/11/06 02:39:56;;;;;;;0.10;0.10;;;9.50;99.90;;;;;;5088764;28;20124;-72
2022/11/06 02:42:24;;;;;;;0.17;0.17;;;9.50;99.90;;;;;;5090076;28;20123;-73
2022/11/06 02:44:52;;;;;;;0.10;0.10;;;9.50;99.90;;;;;;5084650;28;20063;-73
2022/11/06 02:47:20;;;;;;;0.10;0.10;;;9.50;99.90;;;;;;5078574;28;20119;-73
2022/11/06 02:50:03;;;;;;;0.20;0.20;;;9.80;99.90;;;;;;5077173;28;22025;-73
2022/11/06 02:52:51;;;;;;;0.20;0.20;;;9.50;99.90;;;;;;5080865;28;20491;-73
2022/11/06 02:55:34;;;;;;;0.10;0.10;;;9.50;99.90;;;;;;5084925;28;20048;-73
2022/11/06 02:58:26;;;;;;;0.20;0.20;;;9.50;99.90;;;;;;5076693;28;20083;-73
2022/11/06 03:00:59;;;;;;;0.10;0.10;;;9.50;99.90;;;;;;5075104;28;20115;-73
2022/11/06 03:03:30;;;;;;;0.20;0.20;;;9.50;99.90;;;;;;5086363;28;20071;-73
2022/11/06 03:06:08;;;;;;;0.10;0.10;;;9.60;99.90;;;;;;5076781;28;20040;-73
2022/11/06 03:08:46;;;;;;;0.10;0.10;;;9.50;99.90;;;;;;5073673;28;20415;-74
2022/11/06 03:11:20;;;;;;;0.20;0.20;;;9.50;99.90;;;;;;5083603;28;20379;-73
2022/11/06 03:14:01;;;;;;;0.20;0.20;;;9.50;99.90;;;;;;5087839;28;20870;-73
2022/11/06 03:16:38;;;;;;;0.20;0.20;;;9.50;99.90;;;;;;5074216;28;20066;-73
2022/11/06 03:19:14;;;;;;;0.20;0.20;;;9.50;99.90;;;;;;5089075;28;20047;-74
2022/11/06 03:22:04;;;;;;;0.20;0.20;;;9.50;99.90;;;;;;5074337;28;20040;-73
2022/11/06 03:24:33;;;;;;;0.20;0.20;;;9.50;99.90;;;;;;5075236;28;20044;-73
2022/11/06 03:27:06;;;;;;;0.20;0.20;;;9.70;99.90;;;;;;5068273;28;20048;-73
2022/11/06 03:29:58;;;;;;;0.20;0.20;;;9.50;99.90;;;;;;5067829;28;20063;-74
2022/11/06 03:32:49;;;;;;;0.17;0.17;;;9.50;99.90;;;;;;5070590;28;20041;-74
2022/11/06 03:35:25;;;;;;;0.10;0.10;;;9.50;99.90;;;;;;5083454;28;20044;-73
2022/11/06 03:37:58;;;;;;;0.20;0.20;;;9.60;99.90;;;;;;5089467;28;20028;-73
2022/11/06 03:40:28;;;;;;;0.20;0.20;;;9.70;99.90;;;;;;5088884;28;20125;-73
2022/11/06 03:42:58;;;;;;;0.15;0.15;;;9.90;99.90;;;;;;5069647;28;20499;-73
2022/11/06 03:45:26;;;;;;;0.20;0.20;;;9.60;99.90;;;;;;5071485;28;20048;-73
2022/11/06 03:48:18;;;;;;;0.20;0.20;;;9.60;99.90;;;;;;5081239;28;20104;-73
2022/11/06 03:50:53;;;;;;;0.10;0.10;;;9.60;99.90;;;;;;5088377;28;20589;-74
2022/11/06 03:53:37;;;;;;;0.10;0.10;;;9.60;99.90;;;;;;5080624;28;20732;-73
2022/11/06 03:56:17;;;;;;;0.20;0.20;;;9.50;99.90;;;;;;5077961;28;20044;-73
2022/11/06 03:58:46;;;;;;;0.10;0.10;;;9.60;99.90;;;;;;5079539;28;20127;-74
2022/11/06 04:01:15;;;;;;;0.10;0.10;;;9.60;99.90;;;;;;5086716;28;20085;-74
2022/11/06 04:03:47;;;;;;;0.20;0.20;;;9.60;99.90;;;;;;5088475;28;20075;-73
2022/11/06 04:06:19;;;;;;;0.15;0.15;;;9.60;99.90;;;;;;5088566;28;20039;-74
2022/11/06 04:14:21;;;;;;;0.17;0.17;;;9.60;99.90;;;;;;5068254;28;20052;-72
2022/11/06 04:16:51;;;;;;;0.10;0.10;;;9.60;99.90;;;;;;5073554;28;20036;-71
2022/11/06 04:19:19;;;;;;;0.20;0.20;;;9.60;99.90;;;;;;5068868;28;20048;-72
2022/11/06 04:22:11;;;;;;;0.10;0.10;;;9.60;99.90;;;;;;5080992;28;20046;-72
2022/11/06 04:28:11;;;;;;;0.20;0.20;;;9.60;99.90;;;;;;5082034;28;20078;-72
2022/11/06 04:30:59;;;;;;;0.20;0.20;;;9.60;99.90;;;;;;5079512;28;20079;-72
2022/11/06 04:33:36;;;;;;;0.20;0.20;;;9.60;99.90;;;;;;5068396;28;20393;-72
2022/11/06 04:36:23;;;;;;;0.20;0.20;;;9.60;99.90;;;;;;5069339;28;20063;-72
2022/11/06 04:39:03;;;;;;;0.20;0.20;;;9.60;99.90;;;;;;5114443;28;20040;-73
2022/11/06 04:42:04;;;;;;;0.10;0.10;;;9.60;99.90;;;;;;5088429;28;20130;-72
2022/11/06 04:44:40;;;;;;;0.40;0.40;;;9.60;99.90;;;;;;5058041;28;20127;-73
2022/11/06 04:47:16;;;;;;;0.20;0.20;;;9.60;99.90;;;;;;5113515;28;20060;-73
2022/11/06 04:49:43;;;;;;;0.20;0.20;;;9.60;99.90;;;;;;5088745;28;20036;-73
2022/11/06 04:52:14;;;;;;;0.20;0.20;;;9.60;99.90;;;;;;5087183;28;20067;-73
2022/11/06 04:54:39;;;;;;;0.10;0.10;;;9.60;99.90;;;;;;5087551;28;20047;-73
2022/11/06 04:57:05;;;;;;;0.10;0.10;;;9.60;99.90;;;;;;5085320;28;21113;-73
2022/11/06 04:59:35;;;;;;;0.20;0.20;;;9.60;99.90;;;;;;5084330;28;20043;-72
2022/11/06 05:02:01;;;;;;;0.20;0.20;;;9.60;99.90;;;;;;5075911;28;20055;-73
2022/11/06 05:04:26;;;;;;;0.20;0.20;;;9.60;99.90;;;;;;5078189;28;20045;-73
2022/11/06 05:06:52;;;;;;;0.17;0.17;;;9.60;99.90;;;;;;5077260;28;20193;-72
2022/11/06 05:09:17;;;;;;;0.10;0.10;;;9.60;99.90;;;;;;5079531;28;20407;-72
2022/11/06 05:11:43;;;;;;;0.10;0.10;;;9.70;99.90;;;;;;5090608;28;20570;-73
2022/11/06 05:14:09;;;;;;;0.20;0.20;;;9.60;99.90;;;;;;5087535;28;20513;-72
2022/11/06 05:16:34;;;;;;;0.20;0.20;;;9.60;99.90;;;;;;5089537;28;20058;-73
2022/11/06 05:19:00;;;;;;;0.10;0.10;;;9.60;99.90;;;;;;5091753;28;20560;-72
2022/11/06 05:24:10;;;;;;;0.20;0.20;;;9.60;99.90;;;;;;5084229;28;20060;-73
2022/11/06 05:26:36;;;;;;;0.10;0.10;;;9.60;99.90;;;;;;5086801;28;20154;-73
2022/11/06 05:29:01;;;;;;;0.10;0.10;;;9.60;99.90;;;;;;5087609;28;20044;-73
2022/11/06 05:31:27;;;;;;;0.10;0.10;;;9.60;99.90;;;;;;5091282;28;20097;-73
2022/11/06 05:33:53;;;;;;;0.13;0.13;;;9.60;99.90;;;;;;5090557;28;20148;-72
2022/11/06 05:36:18;;;;;;;0.20;0.20;;;9.60;99.90;;;;;;5088442;28;20055;-73
2022/11/06 05:38:44;;;;;;;0.20;0.20;;;9.60;99.90;;;;;;5091537;28;20044;-73
2022/11/06 05:41:10;;;;;;;0.17;0.17;;;9.60;99.90;;;;;;5089911;28;20044;-72
2022/11/06 05:43:36;;;;;;;0.10;0.10;;;9.60;99.90;;;;;;5090204;28;20745;-73
2022/11/06 05:46:01;;;;;;;0.20;0.20;;;9.60;99.90;;;;;;5089472;28;20079;-73
2022/11/06 05:48:28;;;;;;;0.10;0.10;;;9.60;99.90;;;;;;5086913;28;20585;-73
2022/11/06 05:50:59;;;;;;;0.10;0.10;;;9.70;99.90;;;;;;5088109;28;20445;-73
2022/11/06 05:53:25;;;;;;;0.20;0.20;;;9.70;99.90;;;;;;5081102;28;20094;-73
2022/11/06 05:55:50;;;;;;;0.20;0.20;;;9.60;99.90;;;;;;5076908;28;20135;-73
2022/11/06 05:58:16;;;;;;;0.15;0.15;;;9.70;99.90;;;;;;5082876;28;20036;-73
2022/11/06 06:00:41;;;;;;;0.10;0.10;;;9.60;99.90;;;;;;5081904;28;20468;-73
2022/11/06 06:03:08;;;;;;;0.10;0.10;;;9.60;99.90;;;;;;5070154;28;20058;-73
2022/11/06 06:05:34;;;;;;;0.10;0.10;;;9.60;99.90;;;;;;5080440;28;20048;-73
2022/11/06 06:07:59;;;;;;;0.20;0.20;;;9.60;99.90;;;;;;5077694;28;20059;-73
2022/11/06 06:10:25;;;;;;;0.10;0.10;;;9.60;99.90;;;;;;5078149;28;20309;-73
2022/11/06 06:12:51;;;;;;;0.17;0.17;;;9.60;99.90;;;;;;5085461;28;20126;-73
2022/11/06 06:15:16;;;;;;;0.10;0.10;;;9.60;99.90;;;;;;5094142;28;20079;-73
2022/11/06 06:17:44;;;;;;;0.70;0.25;;;9.60;99.90;;;;;;5083334;28;20127;-73
2022/11/06 06:20:10;;;;;;;0.20;0.20;;;9.70;99.90;;;;;;5087455;28;21452;-73
2022/11/06 06:22:35;;;;;;;0.20;0.20;;;9.60;99.90;;;;;;5088165;28;20036;-74
2022/11/06 06:25:01;;;;;;;0.10;0.10;;;9.60;99.90;;;;;;5093120;28;20055;-74
2022/11/06 06:27:26;;;;;;;0.10;0.10;;;9.60;99.90;;;;;;5077903;28;20048;-73
2022/11/06 06:29:53;;;;;;;0.20;0.20;;;9.60;99.90;;;;;;5092389;28;20062;-73
2022/11/06 06:32:18;;;;;;;0.10;0.10;;;9.60;99.90;;;;;;5091349;28;20142;-73
2022/11/06 06:34:44;;;;;;;0.20;0.20;;;9.70;99.90;;;;;;5105025;28;20127;-72
2022/11/06 06:37:10;;;;;;;0.10;0.10;;;9.60;99.90;;;;;;5088609;28;20044;-73
2022/11/06 06:39:35;;;;;;;0.20;0.20;;;9.90;99.90;;;;;;5089326;28;20036;-73
2022/11/06 06:42:02;;;;;;;0.20;0.20;;;9.60;99.90;;;;;;5087443;28;20472;-73
2022/11/06 06:44:28;;;;;;;0.20;0.20;;;9.60;99.90;;;;;;5089071;28;20137;-73
2022/11/06 06:46:53;;;;;;;0.10;0.10;;;9.60;99.90;;;;;;5080147;28;20087;-73
2022/11/06 06:49:19;;;;;;;0.10;0.10;;;9.70;99.90;;;;;;5094324;28;20043;-73
2022/11/06 06:51:47;;;;;;;0.13;0.13;;;9.60;99.90;;;;;;5087803;28;20554;-73
2022/11/06 06:54:13;;;;;;;0.20;0.20;;;9.60;99.90;;;;;;5085769;28;20044;-73
2022/11/06 06:56:39;;;;;;;0.20;0.20;;;9.60;99.90;;;;;;5088177;28;20036;-73
2022/11/06 06:59:06;;;;;;;0.20;0.20;;;9.70;99.90;;;;;;5081595;28;20071;-73
2022/11/06 07:01:32;;;;;;;0.20;0.20;;;9.60;99.90;;;;;;5078849;28;20059;-73
2022/11/06 07:03:58;;;;;;;0.13;0.13;;;9.60;99.90;;;;;;5083895;28;20047;-73
2022/11/06 07:06:23;;;;;;;0.20;0.20;;;9.70;99.90;;;;;;5087474;28;20039;-73
2022/11/06 07:08:53;;;;;;;0.20;0.20;;;9.60;99.90;;;;;;5067880;28;20083;-72
2022/11/06 07:11:18;;;;;;;0.20;0.20;;;9.70;99.90;;;;;;5068710;28;20855;-73
2022/11/06 07:13:44;;;;;;;0.10;0.10;;;9.60;99.90;;;;;;5072405;28;20044;-73
2022/11/06 07:16:10;;;;;;;0.10;0.10;;;9.70;99.90;;;;;;5071368;28;20041;-73
2022/11/06 07:18:37;;;;;;;0.17;0.17;;;9.70;99.90;;;;;;5088145;28;20051;-73
2022/11/06 07:21:07;;;;;;;0.10;0.10;;;9.70;99.90;;;;;;5090034;28;20119;-72
2022/11/06 07:23:34;;;;;;;0.13;0.13;;;9.70;99.90;;;;;;5084261;28;20047;-72
2022/11/06 07:26:00;;;;;;;0.15;0.15;;;9.70;99.90;;;;;;5083381;28;20449;-73
2022/11/06 07:28:26;;;;;;;0.20;0.20;;;9.70;99.90;;;;;;5081351;28;20040;-73
2022/11/06 07:30:56;;;;;;;0.10;0.10;;;9.70;99.90;;;;;;5085008;28;20395;-73
2022/11/06 07:33:21;;;;;;;0.20;0.20;;;9.70;99.90;;;;;;5079493;28;20078;-72
2022/11/06 07:35:47;;;;;;;0.10;0.10;;;9.80;99.90;;;;;;5073663;28;20071;-71
2022/11/06 07:38:13;;;;;;;0.20;0.20;;;9.80;99.90;;;;;;5077899;28;20395;-72
2022/11/06 07:40:38;;;;;;;0.20;0.20;;;9.80;99.90;;;;;;5069591;28;20045;-73
2022/11/06 07:43:09;;;;;;;0.20;0.20;;;9.80;99.90;;;;;;5068759;28;20051;-72
2022/11/06 07:45:36;;;;;;;0.10;0.10;;;9.90;99.90;;;;;;5070582;28;20052;-73
2022/11/06 07:48:02;;;;;;;0.15;0.15;;;9.90;99.90;;;;;;5069210;28;21053;-72
2022/11/06 07:50:28;;;;;;;0.20;0.20;;;9.90;99.90;;;;;;5079695;28;20044;-72
2022/11/06 07:52:54;;;;;;;0.20;0.20;;;10.00;99.90;;;;;;5088651;28;20499;-72
2022/11/06 07:55:20;;;;;;;0.10;0.10;;;10.00;99.90;;;;;;5083848;28;20040;-73
2022/11/06 07:57:46;;;;;;;0.20;0.20;;;10.00;99.90;;;;;;5072810;28;20052;-73
2022/11/06 08:00:12;;;;;;;0.10;0.10;;;10.00;99.90;;;;;;5068427;28;20029;-73
2022/11/06 08:02:38;;;;;;;0.20;0.20;;;10.00;99.90;;;;;;5070857;28;20074;-73
2022/11/06 08:05:04;;;;;;;0.20;0.20;;;10.20;99.90;;;;;;5078113;28;20462;-73
2022/11/06 08:07:29;;;;;;;0.20;0.20;;;10.00;99.90;;;;;;5083552;28;20059;-73
2022/11/06 08:09:55;;;;;;;0.20;0.20;;;10.00;99.90;;;;;;5077591;28;20051;-72
2022/11/06 08:12:20;;;;;;;0.10;0.10;;;10.00;99.90;;;;;;5068173;28;20483;-73
2022/11/06 08:14:46;;;;;;;0.17;0.17;;;10.00;99.90;;;;;;5073763;28;20043;-73
2022/11/06 08:17:12;;;;;;;0.10;0.10;;;10.00;99.90;;;;;;5088890;28;20139;-72
2022/11/06 08:19:37;;;;;;;0.20;0.20;;;10.00;99.90;;;;;;5078493;28;20050;-73
2022/11/06 08:22:03;;;;;;;0.10;0.10;;;10.00;99.90;;;;;;5077055;28;20032;-73
2022/11/06 08:24:29;;;;;;;0.10;0.10;;;10.00;99.90;;;;;;5077517;28;20390;-72
2022/11/06 08:26:54;;;;;;;0.10;0.10;;;10.00;99.90;;;;;;5079035;28;20198;-73
2022/11/06 08:29:20;;;;;;;0.20;0.20;;;10.00;99.90;;;;;;5071755;28;20056;-72
2022/11/06 08:31:45;;;;;;;0.10;0.10;;;10.00;99.90;;;;;;5067225;28;20468;-72
2022/11/06 08:34:11;;;;;;;0.10;0.10;;;10.00;99.90;;;;;;5064715;28;20040;-72
2022/11/06 08:36:49;;;;;;;0.20;0.20;;;10.20;99.90;;;;;;5061676;28;20050;-72
2022/11/06 08:39:14;;;;;;;0.20;0.20;;;10.00;99.90;;;;;;5067756;28;20036;-72
2022/11/06 08:41:40;;;;;;;0.20;0.20;;;10.00;99.90;;;;;;5066511;28;20055;-72
2022/11/06 08:44:07;;;;;;;0.10;0.10;;;10.00;99.90;;;;;;5066031;28;20036;-74
2022/11/06 08:46:32;;;;;;;0.20;0.20;;;10.00;99.90;;;;;;5067326;28;20067;-72
2022/11/06 08:48:58;;;;;;;0.10;0.10;;;10.10;99.90;;;;;;5070803;28;20036;-73
2022/11/06 08:51:23;;;;;;;0.20;0.20;;;10.10;99.90;;;;;;5076147;28;20389;-73
2022/11/06 08:53:49;;;;;;;0.20;0.20;;;10.10;99.90;;;;;;5084472;28;20068;-72
2022/11/06 08:56:16;;;;;;;0.20;0.20;;;10.10;99.90;;;;;;5077466;28;20125;-73
2022/11/06 08:58:41;;;;;;;0.10;0.10;;;10.20;99.90;;;;;;5064301;28;20052;-73
2022/11/06 09:01:07;;;;;;;0.20;0.20;;;10.20;99.90;;;;;;5066950;28;20086;-73
2022/11/06 09:03:33;;;;;;;0.20;0.20;;;10.20;99.90;;;;;;5068652;28;20044;-73
2022/11/06 09:05:58;;;;;;;0.15;0.15;;;10.30;99.90;;;;;;5066231;28;20040;-73
2022/11/06 09:08:24;;;;;;;0.20;0.20;;;10.30;99.90;;;;;;5068140;28;20182;-73
2022/11/06 09:10:50;;;;;;;0.20;0.20;;;10.30;99.90;;;;;;5072706;28;20059;-73
2022/11/06 09:13:16;;;;;;;0.10;0.10;;;10.30;99.90;;;;;;5070255;28;20052;-73
2022/11/06 09:15:41;;;;;;;0.10;0.10;;;10.40;99.90;;;;;;5066194;28;20039;-73
2022/11/06 09:18:09;;;;;;;0.10;0.10;;;10.40;99.90;;;;;;5067860;28;20113;-73
2022/11/06 09:20:34;;;;;;;0.10;0.10;;;10.40;99.90;;;;;;5066877;28;20062;-72
2022/11/06 09:23:03;;;;;;;0.20;0.20;;;10.50;99.90;;;;;;5081458;28;20483;-73
2022/11/06 09:25:29;;;;;;;0.20;0.20;;;10.50;99.90;;;;;;5079658;28;20040;-74
2022/11/06 09:27:55;;;;;;;0.20;0.20;;;10.80;99.90;;;;;;5076499;28;20056;-72
2022/11/06 09:30:22;;;;;;;0.10;0.10;;;10.60;99.90;;;;;;5070773;28;20041;-71
2022/11/06 09:32:53;;;;;;;0.20;0.20;;;10.70;99.90;;;;;;5072589;28;20526;-72
2022/11/06 09:35:20;;;;;;;0.20;0.20;;;10.70;99.90;;;;;;5074349;28;20045;-73
2022/11/06 09:37:45;;;;;;;0.20;0.20;;;10.70;99.90;;;;;;5074412;28;20131;-73
2022/11/06 09:40:20;;;;;;;0.10;0.10;;;10.80;99.90;;;;;;5081429;28;20131;-72
2022/11/06 09:43:00;;;;;;;0.20;0.20;;;10.80;99.90;;;;;;5077009;28;20086;-73
2022/11/06 09:45:29;;;;;;;0.17;0.17;;;10.80;99.90;;;;;;5081645;28;20040;-73
2022/11/06 09:48:12;;;;;;;0.15;0.15;;;10.90;99.90;;;;;;5077638;28;20051;-73
2022/11/06 09:50:50;;;;;;;0.20;0.20;;;10.80;99.90;;;;;;5072016;28;20488;-73
2022/11/06 09:53:26;;;;;;;0.15;0.15;;;10.90;99.90;;;;;;5071673;28;20157;-73
2022/11/06 09:55:53;;;;;;;0.20;0.20;;;10.90;99.90;;;;;;5074442;28;20040;-72
2022/11/06 09:58:45;;;;;;;0.13;0.13;;;11.00;99.90;;;;;;5069600;28;20067;-73
2022/11/06 10:01:21;;;;;;;0.20;0.20;;;11.00;99.90;;;;;;5070133;28;20140;-73
2022/11/06 10:04:01;;;;;;;0.15;0.15;;;10.90;99.90;;;;;;5080621;28;20115;-71
2022/11/06 10:06:27;;;;;;;0.10;0.10;;;11.00;99.90;;;;;;5103141;28;20090;-72
2022/11/06 10:09:01;;;;;;;0.10;0.10;;;11.00;99.90;;;;;;5069859;28;20416;-73
2022/11/06 10:11:59;;;;;;;0.20;0.20;;;11.00;99.90;;;;;;5070143;28;20067;-72
2022/11/06 10:14:40;;;;;;;0.20;0.20;;;11.10;99.90;;;;;;5036386;28;20055;-72
2022/11/06 10:17:18;;;;;;;0.10;0.10;;;11.10;99.90;;;;;;5063320;28;22031;-72
2022/11/06 10:20:05;;;;;;;0.10;0.10;;;11.10;99.90;;;;;;5067823;28;20069;-73
2022/11/06 10:22:38;;;;;;;0.10;0.10;;;11.10;99.90;;;;;;5062902;28;20079;-73
2022/11/06 10:25:19;;;;;;;0.20;0.20;;;11.30;99.90;;;;;;5064658;28;20071;-72
2022/11/06 10:27:51;;;;;;;0.10;0.10;;;;;;;;;;5074881;28;20036;-73
2022/11/06 10:30:18;;;;;;;0.10;0.10;;;;;;;;;;5069417;28;20104;-71
2022/11/06 10:32:59;;;;;;;0.20;0.20;;;;;;;;;;5066488;28;20072;-71
2022/11/06 10:35:40;;;;;;;0.20;0.20;;;11.20;99.90;;;;;;5085188;28;20056;-73
2022/11/06 10:38:28;;;;;;;0.17;0.17;;;11.30;99.90;;;;;;5077743;28;20111;-72
2022/11/06 10:40:55;;;;;;;0.10;0.10;;;11.30;99.90;;;;;;5070948;28;20619;-72
2022/11/06 10:43:25;;;;;;;0.13;0.13;;;11.30;99.90;;;;;;5085359;28;20059;-72
2022/11/06 10:45:59;;;;;;;0.17;0.17;;;11.40;99.90;;;;;;5079192;28;21549;-72
2022/11/06 10:48:28;;;;;;;0.20;0.20;;;11.40;99.90;;;;;;5077959;28;20087;-72
2022/11/06 10:51:13;;;;;;;0.20;0.20;;;11.40;99.90;;;;;;5074836;28;20048;-72
2022/11/06 10:53:57;;;;;;;0.20;0.20;;;11.40;99.90;;;;;;5066523;28;20048;-72
2022/11/06 10:56:46;;;;;;;0.15;0.15;;;11.40;99.90;;;;;;5067129;28;20547;-72
2022/11/06 10:59:12;;;;;;;0.20;0.20;;;11.50;99.90;;;;;;5100709;28;20065;-72
2022/11/06 11:01:38;;;;;;;0.20;0.20;;;11.50;99.90;;;;;;5073491;28;20036;-73
2022/11/06 11:04:04;;;;;;;0.20;0.20;;;11.60;99.90;;;;;;5077306;28;20040;-71
2022/11/06 11:06:30;;;;;;;0.10;0.10;;;11.60;99.90;;;;;;5078093;28;20089;-72
2022/11/06 11:08:55;;;;;;;0.20;0.20;;;11.60;99.90;;;;;;5074232;28;20075;-72
2022/11/06 11:11:25;;;;;;;0.15;0.15;;;11.70;99.90;;;;;;5066905;28;20075;-72
2022/11/06 11:14:00;;;;;;;0.10;0.10;;;11.70;99.90;;;;;;5071933;28;20124;-73
2022/11/06 11:16:38;;;;;;;0.13;0.13;;;11.70;99.90;;;;;;5078485;28;20033;-72
2022/11/06 11:19:25;;;;;;;0.10;0.10;;;11.70;99.90;;;;;;5069663;28;20122;-72
2022/11/06 11:21:59;;;;;;;0.20;0.20;;;11.80;99.90;;;;;;5066945;28;20040;-71
2022/11/06 11:24:26;;;;;;;0.20;0.20;;;11.80;99.90;;;;;;5066436;28;20438;-72
2022/11/06 11:26:55;;;;;;;0.17;0.17;;;11.70;99.90;;;;;;5075075;28;20040;-71
2022/11/06 11:29:46;;;;;;;0.20;0.20;;;11.80;99.90;;;;;;5068571;28;20040;-71
2022/11/06 11:32:17;;;;;;;0.17;0.17;;;11.70;99.90;;;;;;5068386;28;20434;-72
2022/11/06 11:34:46;;;;;;;0.10;0.10;;;11.70;99.90;;;;;;5076980;28;20446;-71
2022/11/06 11:37:32;;;;;;;0.20;0.20;;;11.70;99.90;;;;;;5073078;28;20390;-72
2022/11/06 11:40:31;;;;;;;0.20;0.20;;;11.60;99.90;;;;;;5082997;28;20047;-72
2022/11/06 11:43:22;;;;;;;0.10;0.10;;;11.60;99.90;;;;;;5070178;28;20078;-71
2022/11/06 11:46:09;;;;;;;0.20;0.20;;;11.60;99.90;;;;;;5063772;28;20124;-71
2022/11/06 11:48:51;;;;;;;0.20;0.20;;;11.60;99.90;;;;;;5078431;28;20040;-72
2022/11/06 11:51:35;;;;;;;;;;;11.50;99.90;;;;;;5064696;28;20044;-72
2022/11/06 11:54:06;;;;;;;0.20;0.20;;;11.50;99.90;;;;;;5058701;28;19935;-72
2022/11/06 11:56:32;;;;;;;0.15;0.15;;;11.50;99.90;;;;;;5063750;28;20036;-72
2022/11/06 11:59:00;;;;;;;0.20;0.20;;;11.50;99.90;;;;;;5070206;28;20066;-72
2022/11/06 12:01:38;;;;;;;0.10;0.10;;;11.70;99.90;;;;;;5060788;28;20035;-72
2022/11/06 12:04:23;;;;;;;0.20;0.20;;;11.50;99.90;;;;;;5058290;28;20048;-71
2022/11/06 12:06:56;;;;;;;0.20;0.20;;;11.50;99.90;;;;;;5065062;28;20037;-71
2022/11/06 12:09:23;;;;;;;0.10;0.10;;;11.60;99.90;;;;;;5065068;28;20040;-71
2022/11/06 12:11:51;;;;;;;0.20;0.20;;;11.50;99.90;;;;;;5070759;28;20037;-71
2022/11/06 12:14:19;;;;;;;0.10;0.10;;;11.60;99.90;;;;;;5072225;28;20058;-72
2022/11/06 12:16:49;;;;;;;0.10;0.10;;;11.60;99.90;;;;;;5062588;28;20059;-74
2022/11/06 12:19:16;;;;;;;0.10;0.10;;;11.60;99.90;;;;;;5066015;28;20042;-71
2022/11/06 12:21:48;;;;;;;0.20;0.20;;;11.60;99.90;;;;;;5081432;28;20103;-72
2022/11/06 12:24:26;;;;;;;0.10;0.10;;;11.60;99.90;;;;;;5062733;28;20044;-71
2022/11/06 12:26:58;;;;;;;0.10;0.10;;;11.60;99.90;;;;;;5066954;28;20052;-71
2022/11/06 12:29:46;;;;;;;0.20;0.20;;;11.60;99.90;;;;;;5068472;28;20049;-71
2022/11/06 12:32:41;;;;;;;0.20;0.20;;;11.80;99.90;;;;;;5065189;28;20048;-71
2022/11/06 12:35:28;;;;;;;0.20;0.20;;;11.90;99.90;;;;;;5063166;28;20072;-71
2022/11/06 12:38:04;;;;;;;0.10;0.10;;;11.60;99.90;;;;;;5063698;28;20048;-71
2022/11/06 12:40:46;;;;;;;0.20;0.20;;;12.00;99.90;;;;;;5062122;28;20052;-72
2022/11/06 12:43:24;;;;;;;0.15;0.15;;;11.70;99.90;;;;;;5075213;28;20076;-72
2022/11/06 12:46:03;;;;;;;0.10;0.10;;;11.80;99.90;;;;;;5087102;28;20040;-72
2022/11/06 12:48:40;;;;;;;0.17;0.17;;;11.90;99.90;;;;;;5085560;28;20083;-72
2022/11/06 12:51:23;;;;;;;0.20;0.20;;;12.00;99.90;;;;;;5065515;28;20044;-71
2022/11/06 12:54:07;;;;;;;0.10;0.10;;;12.10;99.90;;;;;;5065871;28;20399;-71
2022/11/06 12:56:41;;;;;;;0.20;0.20;;;12.10;99.90;;;;;;5064016;28;20132;-71
2022/11/06 12:59:39;;;;;;;0.10;0.10;;;12.20;99.90;;;;;;5063529;28;20044;-71
2022/11/06 13:02:30;;;;;;;0.10;0.10;;;12.20;99.90;;;;;;5014582;28;20037;-71
2022/11/06 13:05:08;;;;;;;0.10;0.10;;;12.20;99.90;;;;;;5064690;28;20112;-70
2022/11/06 13:07:54;;;;;;;0.17;0.17;;;12.20;99.90;;;;;;5094018;28;20063;-70
2022/11/06 13:10:41;;;;;;;0.10;0.10;;;12.20;99.90;;;;;;5063344;28;20102;-70
2022/11/06 13:13:18;;;;;;;0.10;0.10;;;12.20;99.90;;;;;;5069523;28;21452;-71
2022/11/06 13:15:53;;;;;;;0.13;0.13;;;12.30;99.90;;;;;;5065995;28;20560;-71
2022/11/06 13:18:32;;;;;;;0.20;0.20;;;12.30;99.90;;;;;;5062807;28;20070;-71
2022/11/06 13:21:14;;;;;;;0.20;0.20;;;12.30;99.90;;;;;;5065803;28;20067;-71
2022/11/06 13:23:39;;;;;;;;;;;12.30;99.90;;;;;;5066694;28;20048;-70
2022/11/06 13:26:12;;;;;;;0.20;0.20;;;12.30;99.90;;;;;;5069260;28;19939;-71
2022/11/06 13:28:44;;;;;;;0.10;0.10;;;12.40;99.90;;;;;;5068097;28;20090;-73
2022/11/06 13:31:13;;;;;;;0.10;0.10;;;12.20;99.90;;;;;;5073014;28;20402;-72